createdAt,value
2022-08-22T00:01:42.629Z,22.74
2022-08-22T00:02:49.120Z,23.39
2022-08-22T00:03:12.195Z,22.85
2022-08-22T00:04:26.572Z,23.30
2022-08-22T00:07:22.058Z,23.85
2022-08-22T00:10:04.996Z,23.83
2022-08-22T00:12:52.636Z,23.61
2022-08-22T00:15:42.531Z,23.34
2022-08-22T00:18:27.217Z,23.08
2022-08-22T00:21:18.712Z,22.89
2022-08-22T00:24:27.080Z,23.51
2022-08-22T00:27:04.468Z,23.95
2022-08-22T00:29:39.909Z,23.84
2022-08-22T00:32:15.199Z,23.60
2022-08-22T00:34:54.796Z,23.34
2022-08-22T00:37:22.068Z,23.10
2022-08-22T00:40:10.135Z,22.89
2022-08-22T00:42:56.814Z,23.44
2022-08-22T00:45:45.240Z,23.93
2022-08-22T00:48:51.088Z,23.84
2022-08-22T00:51:31.508Z,23.52
2022-08-22T00:54:28.755Z,23.22
2022-08-22T00:57:39.171Z,22.91
2022-08-22T01:00:13.592Z,22.60
2022-08-22T01:02:52.686Z,22.39
2022-08-22T01:05:41.228Z,22.95
2022-08-22T01:08:18.299Z,23.48
2022-08-22T01:11:08.443Z,23.40
2022-08-22T01:13:49.393Z,23.10
2022-08-22T01:16:56.496Z,22.80
2022-08-22T01:19:54.510Z,22.47
2022-08-22T01:22:33.731Z,22.24
2022-08-22T01:25:26.290Z,22.84
2022-08-22T01:27:59.775Z,23.22
2022-08-22T01:31:07.452Z,23.09
2022-08-22T01:34:14.337Z,22.75
2022-08-22T01:37:10.195Z,22.39
2022-08-22T01:40:01.709Z,22.11
2022-08-22T01:43:06.785Z,22.70
2022-08-22T01:45:36.687Z,23.03
2022-08-22T01:48:12.959Z,22.86
2022-08-22T01:50:45.487Z,22.56
2022-08-22T01:53:22.908Z,22.26
2022-08-22T01:55:58.967Z,22.01
2022-08-22T01:58:31.343Z,21.80
2022-08-22T02:01:19.027Z,22.30
2022-08-22T02:04:02.171Z,22.81
2022-08-22T02:06:41.354Z,22.75
2022-08-22T02:09:38.955Z,22.47
2022-08-22T02:12:25.690Z,22.12
2022-08-22T02:15:02.609Z,21.78
2022-08-22T02:17:32.811Z,21.54
2022-08-22T02:20:29.180Z,22.01
2022-08-22T02:23:21.984Z,22.55
2022-08-22T02:25:57.131Z,22.49
2022-08-22T02:28:56.936Z,22.25
2022-08-22T02:31:53.178Z,21.90
2022-08-22T02:34:28.264Z,21.61
2022-08-22T02:37:13.833Z,21.42
2022-08-22T02:39:49.838Z,22.04
2022-08-22T02:42:45.060Z,22.50
2022-08-22T02:45:23.261Z,22.39
2022-08-22T02:48:05.943Z,22.11
2022-08-22T02:50:52.881Z,21.82
2022-08-22T02:53:48.163Z,21.52
2022-08-22T02:56:28.669Z,21.30
2022-08-22T02:59:18.800Z,21.93
2022-08-22T03:01:46.555Z,22.34
2022-08-22T03:04:34.180Z,22.26
2022-08-22T03:07:09.217Z,21.97
2022-08-22T03:09:41.471Z,21.69
2022-08-22T03:12:26.636Z,21.41
2022-08-22T03:15:00.365Z,21.18
2022-08-22T03:17:35.015Z,21.75
2022-08-22T03:20:10.642Z,22.23
2022-08-22T03:23:03.773Z,22.19
2022-08-22T03:25:37.358Z,21.90
2022-08-22T03:28:12.236Z,21.61
2022-08-22T03:31:22.654Z,21.33
2022-08-22T03:34:16.373Z,21.11
2022-08-22T03:37:06.507Z,21.83
2022-08-22T03:39:51.498Z,22.13
2022-08-22T03:42:35.985Z,21.97
2022-08-22T03:45:41.382Z,21.68
2022-08-22T03:48:29.604Z,21.33
2022-08-22T03:51:14.545Z,21.07
2022-08-22T03:53:46.212Z,21.70
2022-08-22T03:56:35.056Z,22.14
2022-08-22T03:59:32.153Z,22.10
2022-08-22T04:02:43.256Z,21.83
2022-08-22T04:05:33.380Z,21.50
2022-08-22T04:08:11.224Z,21.29
2022-08-22T04:11:07.013Z,21.89
2022-08-22T04:14:10.108Z,22.33
2022-08-22T04:16:42.079Z,22.24
2022-08-22T04:19:16.216Z,21.99
2022-08-22T04:21:49.310Z,21.73
2022-08-22T04:24:24.455Z,21.51
2022-08-22T04:26:58.208Z,21.35
2022-08-22T04:29:34.139Z,21.96
2022-08-22T04:32:14.777Z,22.53
2022-08-22T04:34:54.860Z,22.56
2022-08-22T04:37:28.115Z,22.38
2022-08-22T04:40:02.354Z,22.17
2022-08-22T04:42:42.436Z,21.97
2022-08-22T04:45:18.389Z,21.83
2022-08-22T04:47:54.202Z,22.45
2022-08-22T04:51:00.720Z,23.02
2022-08-22T04:53:50.068Z,23.07
2022-08-22T04:57:02.917Z,22.94
2022-08-22T04:59:30.134Z,22.78
2022-08-22T05:02:06.825Z,22.74
2022-08-22T05:05:13.476Z,23.42
2022-08-22T05:07:46.390Z,24.24
2022-08-22T05:10:17.791Z,24.40
2022-08-22T05:12:54.944Z,24.35
2022-08-22T05:15:24.843Z,24.16
2022-08-22T05:17:54.347Z,23.94
2022-08-22T05:20:23.993Z,23.76
2022-08-22T05:22:53.038Z,23.62
2022-08-22T05:25:22.585Z,24.17
2022-08-22T05:27:56.256Z,24.78
2022-08-22T05:30:28.007Z,24.91
2022-08-22T05:32:57.391Z,24.83
2022-08-22T05:35:33.723Z,24.74
2022-08-22T05:38:01.177Z,24.67
2022-08-22T05:40:30.241Z,24.57
2022-08-22T05:42:57.853Z,24.51
2022-08-22T05:45:26.600Z,25.01
2022-08-22T05:48:04.337Z,25.55
2022-08-22T05:50:38.207Z,25.54
2022-08-22T05:53:28.588Z,25.30
2022-08-22T05:56:11.068Z,25.00
2022-08-22T05:58:39.086Z,24.80
2022-08-22T06:01:27.875Z,24.66
2022-08-22T06:04:11.940Z,24.50
2022-08-22T06:07:01.591Z,25.19
2022-08-22T06:09:55.344Z,25.72
2022-08-22T06:12:34.834Z,25.80
2022-08-22T06:15:12.760Z,25.68
2022-08-22T06:17:51.460Z,25.56
2022-08-22T06:20:21.352Z,25.58
2022-08-22T06:22:53.784Z,25.65
2022-08-22T06:25:47.606Z,25.68
2022-08-22T06:28:19.988Z,26.65
2022-08-22T06:30:47.460Z,27.37
2022-08-22T06:33:17.299Z,27.56
2022-08-22T06:36:05.431Z,27.49
2022-08-22T06:38:54.419Z,27.40
2022-08-22T06:41:22.264Z,27.40
2022-08-22T06:43:50.007Z,27.45
2022-08-22T06:46:17.143Z,27.60
2022-08-22T06:48:44.802Z,27.62
2022-08-22T06:51:12.471Z,27.42
2022-08-22T06:53:47.703Z,27.26
2022-08-22T06:56:26.600Z,27.12
2022-08-22T06:58:55.627Z,26.97
2022-08-22T07:01:25.447Z,26.85
2022-08-22T07:04:01.187Z,26.77
2022-08-22T07:06:39.521Z,26.69
2022-08-22T07:09:07.250Z,26.62
2022-08-22T07:11:39.562Z,26.51
2022-08-22T07:14:12.078Z,26.41
2022-08-22T07:16:42.173Z,27.00
2022-08-22T07:19:42.235Z,27.56
2022-08-22T07:22:19.307Z,27.65
2022-08-22T07:24:48.294Z,27.53
2022-08-22T07:27:49.808Z,27.38
2022-08-22T07:30:27.564Z,27.07
2022-08-22T07:33:23.643Z,26.89
2022-08-22T07:36:06.067Z,26.75
2022-08-22T07:38:34.952Z,26.65
2022-08-22T07:41:06.522Z,26.57
2022-08-22T07:43:42.007Z,27.18
2022-08-22T07:46:09.185Z,27.90
2022-08-22T07:49:08.122Z,28.02
2022-08-22T07:51:40.527Z,27.83
2022-08-22T07:54:09.370Z,27.70
2022-08-22T07:56:42.417Z,27.60
2022-08-22T07:59:14.914Z,27.55
2022-08-22T08:01:46.559Z,27.56
2022-08-22T08:04:17.643Z,27.54
2022-08-22T08:06:48.639Z,27.65
2022-08-22T08:09:15.742Z,28.40
2022-08-22T08:11:43.645Z,29.17
2022-08-22T08:14:13.608Z,29.80
2022-08-22T08:16:43.825Z,30.25
2022-08-22T08:19:12.193Z,30.51
2022-08-22T08:21:47.150Z,30.71
2022-08-22T08:24:16.150Z,30.92
2022-08-22T08:27:06.709Z,30.90
2022-08-22T08:29:37.297Z,30.71
2022-08-22T08:32:05.007Z,30.47
2022-08-22T08:34:32.632Z,30.20
2022-08-22T08:37:12.765Z,29.93
2022-08-22T08:39:50.803Z,29.58
2022-08-22T08:43:03.340Z,29.27
2022-08-22T08:45:51.779Z,28.89
2022-08-22T08:48:35.759Z,28.69
2022-08-22T08:51:35.763Z,28.49
2022-08-22T08:54:19.468Z,28.32
2022-08-22T08:57:18.898Z,28.21
2022-08-22T09:00:07.642Z,28.12
2022-08-22T09:03:01.241Z,28.04
2022-08-22T09:05:47.290Z,28.00
2022-08-22T09:08:17.519Z,28.74
2022-08-22T09:11:00.939Z,29.28
2022-08-22T09:13:55.800Z,29.31
2022-08-22T09:16:46.302Z,29.15
2022-08-22T09:19:31.457Z,28.95
2022-08-22T09:22:33.448Z,28.79
2022-08-22T09:25:39.270Z,28.63
2022-08-22T09:28:20.455Z,28.58
2022-08-22T09:30:58.663Z,28.63
2022-08-22T09:33:34.147Z,28.94
2022-08-22T09:36:18.051Z,29.28
2022-08-22T09:39:14.287Z,29.45
2022-08-22T09:42:02.796Z,29.47
2022-08-22T09:44:39.475Z,29.43
2022-08-22T09:47:24.261Z,29.48
2022-08-22T09:50:08.740Z,29.72
2022-08-22T09:52:46.995Z,30.02
2022-08-22T09:55:35.337Z,30.94
2022-08-22T09:58:20.245Z,31.68
2022-08-22T10:00:54.960Z,31.92
2022-08-22T10:04:59.237Z,31.98
2022-08-22T10:07:53.302Z,32.05
2022-08-22T10:10:39.217Z,32.16
2022-08-22T10:13:27.195Z,32.24
2022-08-22T10:16:13.623Z,32.29
2022-08-22T10:18:53.246Z,32.36
2022-08-22T10:21:35.445Z,32.28
2022-08-22T10:24:25.316Z,32.31
2022-08-22T10:26:54.862Z,32.48
2022-08-22T10:29:51.970Z,32.53
2022-08-22T10:32:50.622Z,32.62
2022-08-22T10:35:33.675Z,32.84
2022-08-22T10:38:25.205Z,33.12
2022-08-22T10:41:45.506Z,33.45
2022-08-22T10:44:17.393Z,33.66
2022-08-22T10:46:47.462Z,33.69
2022-08-22T10:49:33.216Z,33.60
2022-08-22T10:52:16.193Z,33.59
2022-08-22T10:54:52.686Z,33.64
2022-08-22T10:57:32.645Z,33.76
2022-08-22T11:00:10.190Z,33.64
2022-08-22T11:02:53.614Z,33.36
2022-08-22T11:05:27.559Z,33.03
2022-08-22T11:08:49.483Z,32.72
2022-08-22T11:11:20.804Z,32.74
2022-08-22T11:14:08.658Z,32.89
2022-08-22T11:16:55.025Z,32.99
2022-08-22T11:19:26.359Z,32.88
2022-08-22T11:22:10.058Z,32.67
2022-08-22T11:25:04.390Z,32.59
2022-08-22T11:27:38.377Z,32.54
2022-08-22T11:30:18.112Z,32.58
2022-08-22T11:33:17.314Z,32.54
2022-08-22T11:35:50.421Z,32.44
2022-08-22T11:38:37.717Z,32.52
2022-08-22T11:41:24.353Z,32.72
2022-08-22T11:44:03.473Z,32.98
2022-08-22T11:46:33.251Z,33.07
2022-08-22T11:49:33.191Z,33.03
2022-08-22T11:52:26.827Z,33.11
2022-08-22T11:55:23.064Z,33.16
2022-08-22T11:57:52.847Z,33.10
2022-08-22T12:00:23.602Z,33.18
2022-08-22T12:02:53.403Z,33.16
2022-08-22T12:05:24.494Z,32.98
2022-08-22T12:08:08.290Z,32.88
2022-08-22T12:10:38.339Z,32.89
2022-08-22T12:13:35.056Z,32.96
2022-08-22T12:16:38.990Z,32.79
2022-08-22T12:19:24.957Z,32.45
2022-08-22T12:22:31.320Z,32.09
2022-08-22T12:25:17.926Z,31.72
2022-08-22T12:27:58.315Z,31.78
2022-08-22T12:30:45.845Z,31.78
2022-08-22T12:33:34.878Z,31.55
2022-08-22T12:36:18.443Z,30.79
2022-08-22T12:39:36.510Z,28.78
2022-08-22T12:42:23.356Z,27.08
2022-08-22T12:45:03.644Z,27.25
2022-08-22T12:47:42.168Z,27.36
2022-08-22T12:50:20.650Z,27.16
2022-08-22T12:53:10.189Z,26.93
2022-08-22T12:55:46.057Z,26.83
2022-08-22T12:58:42.941Z,27.59
2022-08-22T13:01:11.442Z,28.14
2022-08-22T13:03:50.613Z,28.01
2022-08-22T13:06:36.241Z,27.69
2022-08-22T13:09:31.203Z,27.39
2022-08-22T13:12:20.712Z,27.94
2022-08-22T13:14:49.992Z,28.23
2022-08-22T13:17:24.941Z,28.13
2022-08-22T13:20:11.635Z,27.92
2022-08-22T13:22:41.216Z,27.73
2022-08-22T13:25:26.039Z,28.27
2022-08-22T13:27:56.188Z,28.65
2022-08-22T13:30:40.189Z,28.56
2022-08-22T13:33:15.063Z,28.34
2022-08-22T13:35:52.377Z,28.16
2022-08-22T13:38:27.016Z,28.71
2022-08-22T13:40:57.887Z,29.20
2022-08-22T13:43:31.373Z,29.26
2022-08-22T13:46:06.352Z,29.15
2022-08-22T13:48:47.051Z,28.86
2022-08-22T13:51:21.307Z,28.55
2022-08-22T13:54:20.095Z,28.14
2022-08-22T13:56:50.534Z,27.66
2022-08-22T13:59:51.806Z,27.43
2022-08-22T14:02:39.431Z,27.34
2022-08-22T14:05:13.528Z,27.38
2022-08-22T14:07:58.284Z,28.10
2022-08-22T14:10:28.795Z,28.66
2022-08-22T14:12:59.045Z,28.53
2022-08-22T14:15:32.317Z,28.30
2022-08-22T14:18:17.702Z,28.04
2022-08-22T14:20:46.465Z,27.86
2022-08-22T14:23:27.276Z,27.72
2022-08-22T14:25:54.815Z,27.55
2022-08-22T14:28:27.442Z,27.44
2022-08-22T14:31:14.485Z,27.30
2022-08-22T14:33:49.144Z,27.25
2022-08-22T14:36:22.027Z,27.95
2022-08-22T14:38:57.317Z,28.42
2022-08-22T14:41:55.466Z,28.43
2022-08-22T14:44:29.154Z,28.26
2022-08-22T14:46:58.075Z,28.04
2022-08-22T14:49:29.629Z,27.82
2022-08-22T14:52:00.585Z,27.64
2022-08-22T14:54:29.133Z,27.45
2022-08-22T14:56:56.906Z,27.32
2022-08-22T14:59:33.836Z,27.24
2022-08-22T15:02:02.952Z,27.17
2022-08-22T15:04:39.491Z,27.11
2022-08-22T15:07:08.511Z,27.02
2022-08-22T15:10:17.952Z,27.67
2022-08-22T15:12:54.140Z,28.38
2022-08-22T15:16:05.688Z,28.40
2022-08-22T15:18:35.672Z,28.20
2022-08-22T15:21:28.015Z,27.99
2022-08-22T15:23:59.832Z,27.77
2022-08-22T15:26:33.364Z,27.61
2022-08-22T15:29:28.939Z,27.49
2022-08-22T15:31:58.782Z,28.18
2022-08-22T15:34:44.451Z,28.62
2022-08-22T15:37:18.094Z,28.61
2022-08-22T15:40:12.773Z,28.37
2022-08-22T15:42:44.833Z,28.09
2022-08-22T15:45:34.016Z,27.90
2022-08-22T15:48:04.721Z,27.74
2022-08-22T15:50:39.039Z,27.61
2022-08-22T15:53:20.339Z,28.16
2022-08-22T15:56:25.796Z,28.70
2022-08-22T15:59:15.104Z,28.76
2022-08-22T16:01:49.943Z,28.52
2022-08-22T16:04:30.601Z,28.27
2022-08-22T16:06:58.371Z,27.99
2022-08-22T16:09:34.730Z,27.77
2022-08-22T16:12:04.029Z,27.58
2022-08-22T16:14:34.157Z,28.13
2022-08-22T16:17:07.261Z,28.62
2022-08-22T16:19:38.272Z,28.66
2022-08-22T16:22:07.298Z,28.45
2022-08-22T16:24:59.168Z,28.20
2022-08-22T16:27:26.716Z,27.90
2022-08-22T16:30:08.096Z,27.66
2022-08-22T16:32:35.404Z,27.44
2022-08-22T16:35:02.593Z,27.96
2022-08-22T16:37:43.923Z,28.40
2022-08-22T16:40:23.213Z,28.31
2022-08-22T16:42:53.415Z,28.02
2022-08-22T16:45:36.941Z,27.70
2022-08-22T16:48:32.416Z,27.39
2022-08-22T16:51:12.827Z,27.13
2022-08-22T16:53:45.885Z,27.64
2022-08-22T16:56:33.111Z,27.95
2022-08-22T16:59:52.845Z,27.85
2022-08-22T17:02:45.995Z,27.49
2022-08-22T17:05:19.138Z,27.14
2022-08-22T17:07:56.425Z,26.90
2022-08-22T17:10:41.424Z,27.29
2022-08-22T17:13:37.679Z,27.67
2022-08-22T17:16:31.544Z,27.50
2022-08-22T17:19:13.947Z,27.17
2022-08-22T17:22:04.773Z,26.82
2022-08-22T17:24:47.670Z,26.52
2022-08-22T17:27:38.722Z,27.03
2022-08-22T17:30:07.367Z,27.36
2022-08-22T17:33:26.659Z,27.22
2022-08-22T17:36:36.819Z,26.85
2022-08-22T17:39:26.462Z,26.48
2022-08-22T17:42:20.924Z,26.19
2022-08-22T17:45:13.187Z,26.74
2022-08-22T17:47:47.590Z,26.98
2022-08-22T17:50:18.641Z,26.81
2022-08-22T17:53:07.287Z,26.52
2022-08-22T17:55:55.004Z,26.16
2022-08-22T17:58:35.707Z,25.85
2022-08-22T18:01:46.422Z,26.36
2022-08-22T18:04:25.982Z,26.68
2022-08-22T18:08:01.970Z,26.47
2022-08-22T18:10:41.438Z,26.02
2022-08-22T18:13:36.227Z,25.71
2022-08-22T18:16:11.471Z,25.44
2022-08-22T18:18:44.822Z,25.96
2022-08-22T18:21:32.288Z,26.27
2022-08-22T18:24:13.024Z,26.12
2022-08-22T18:26:43.683Z,25.81
2022-08-22T18:29:17.582Z,25.47
2022-08-22T18:32:14.835Z,25.16
2022-08-22T18:35:02.568Z,25.63
2022-08-22T18:37:35.359Z,25.93
2022-08-22T18:40:04.747Z,25.80
2022-08-22T18:42:34.718Z,25.53
2022-08-22T18:45:02.140Z,25.22
2022-08-22T18:47:34.510Z,24.94
2022-08-22T18:50:22.688Z,25.32
2022-08-22T18:52:51.822Z,25.78
2022-08-22T18:55:50.351Z,25.69
2022-08-22T18:58:58.892Z,25.37
2022-08-22T19:01:58.236Z,24.98
2022-08-22T19:04:54.665Z,24.72
2022-08-22T19:07:48.317Z,25.39
2022-08-22T19:10:23.088Z,25.75
2022-08-22T19:12:53.299Z,25.67
2022-08-22T19:15:26.834Z,25.51
2022-08-22T19:18:13.516Z,25.27
2022-08-22T19:20:59.783Z,25.02
2022-08-22T19:23:37.444Z,24.87
2022-08-22T19:26:24.763Z,25.45
2022-08-22T19:28:53.244Z,25.92
2022-08-22T19:31:50.744Z,25.83
2022-08-22T19:34:30.606Z,25.51
2022-08-22T19:37:32.322Z,25.21
2022-08-22T19:40:10.921Z,24.93
2022-08-22T19:42:41.678Z,25.44
2022-08-22T19:45:29.537Z,25.73
2022-08-22T19:47:59.828Z,25.62
2022-08-22T19:50:33.887Z,25.35
2022-08-22T19:53:11.291Z,25.09
2022-08-22T19:55:38.536Z,24.82
2022-08-22T19:58:31.947Z,25.14
2022-08-22T20:01:29.881Z,25.54
2022-08-22T20:04:20.716Z,25.53
2022-08-22T20:07:45.668Z,25.24
2022-08-22T20:10:34.538Z,24.78
2022-08-22T20:13:27.660Z,24.49
2022-08-22T20:16:10.419Z,25.06
2022-08-22T20:18:53.520Z,25.34
2022-08-22T20:21:46.906Z,25.20
2022-08-22T20:24:25.687Z,24.93
2022-08-22T20:27:12.828Z,24.68
2022-08-22T20:30:05.130Z,24.46
2022-08-22T20:32:37.733Z,25.07
2022-08-22T20:35:05.635Z,25.35
2022-08-22T20:38:04.842Z,25.22
2022-08-22T20:40:57.648Z,24.90
2022-08-22T20:43:36.119Z,24.56
2022-08-22T20:46:13.951Z,24.30
2022-08-22T20:48:45.221Z,24.74
2022-08-22T20:51:17.889Z,25.09
2022-08-22T20:53:53.293Z,25.02
2022-08-22T20:56:53.022Z,24.75
2022-08-22T20:59:27.548Z,24.41
2022-08-22T21:02:02.204Z,24.05
2022-08-22T21:04:39.505Z,23.77
2022-08-22T21:07:30.975Z,24.35
2022-08-22T21:10:22.547Z,24.76
2022-08-22T21:13:04.911Z,24.76
2022-08-22T21:15:47.087Z,24.55
2022-08-22T21:18:26.358Z,24.27
2022-08-22T21:20:53.993Z,24.02
2022-08-22T21:23:21.947Z,23.77
2022-08-22T21:26:07.580Z,24.15
2022-08-22T21:28:54.348Z,24.55
2022-08-22T21:31:23.758Z,24.37
2022-08-22T21:33:52.116Z,24.06
2022-08-22T21:36:22.267Z,23.73
2022-08-22T21:38:58.088Z,23.52
2022-08-22T21:41:28.470Z,23.98
2022-08-22T21:43:56.113Z,24.48
2022-08-22T21:46:28.688Z,24.54
2022-08-22T21:49:02.025Z,24.38
2022-08-22T21:51:44.852Z,24.14
2022-08-22T21:54:39.778Z,23.87
2022-08-22T21:57:13.714Z,23.60
2022-08-22T21:59:52.177Z,24.17
2022-08-22T22:02:29.365Z,24.57
2022-08-22T22:04:59.454Z,24.50
2022-08-22T22:07:27.241Z,24.27
2022-08-22T22:09:55.021Z,23.99
2022-08-22T22:12:23.075Z,23.75
2022-08-22T22:14:50.435Z,23.50
2022-08-22T22:17:18.604Z,23.92
2022-08-22T22:19:46.184Z,24.43
2022-08-22T22:22:21.922Z,24.42
2022-08-22T22:24:52.749Z,24.22
2022-08-22T22:27:19.916Z,23.94
2022-08-22T22:29:47.278Z,23.65
2022-08-22T22:32:15.268Z,23.44
2022-08-22T22:34:42.885Z,23.88
2022-08-22T22:37:11.894Z,24.40
2022-08-22T22:39:39.900Z,24.41
2022-08-22T22:42:09.172Z,24.17
2022-08-22T22:44:40.035Z,23.89
2022-08-22T22:47:13.914Z,23.63
2022-08-22T22:49:41.188Z,23.37
2022-08-22T22:52:11.982Z,23.75
2022-08-22T22:54:39.533Z,24.27
2022-08-22T22:57:12.203Z,24.29
2022-08-22T22:59:40.776Z,24.03
2022-08-22T23:02:13.667Z,23.74
2022-08-22T23:04:45.703Z,23.44
2022-08-22T23:07:14.246Z,23.19
2022-08-22T23:09:45.106Z,23.64
2022-08-22T23:12:13.604Z,24.13
2022-08-22T23:14:42.435Z,24.13
2022-08-22T23:17:09.991Z,23.88
2022-08-22T23:19:38.983Z,23.60
2022-08-22T23:22:06.878Z,23.33
2022-08-22T23:24:37.972Z,23.07
2022-08-22T23:27:06.708Z,23.51
2022-08-22T23:29:34.020Z,24.03
2022-08-22T23:32:02.346Z,24.04
2022-08-22T23:34:32.464Z,23.82
2022-08-22T23:37:00.978Z,23.52
2022-08-22T23:39:29.041Z,23.24
2022-08-22T23:41:56.702Z,23.01
2022-08-22T23:44:25.817Z,23.48
2022-08-22T23:46:53.578Z,23.94
2022-08-22T23:49:21.016Z,23.91
2022-08-22T23:51:50.791Z,23.71
2022-08-22T23:54:18.388Z,23.41
2022-08-22T23:56:48.647Z,23.06
2022-08-22T23:59:18.633Z,22.80
